sensor_id;sensor_type;location;lat;lon;timestamp;pressure;altitude;pressure_sealevel;temperature;humidity
64189;BME280;50493;50.970;10.082;2023-03-13T00:01:52;98484.75;;;7.65;61.24
64189;BME280;50493;50.970;10.082;2023-03-13T00:04:17;98483.91;;;7.63;61.32
64189;BME280;50493;50.970;10.082;2023-03-13T00:06:44;98485.50;;;7.69;61.52
64189;BME280;50493;50.970;10.082;2023-03-13T00:09:10;98490.72;;;7.69;61.71
64189;BME280;50493;50.970;10.082;2023-03-13T00:11:36;98483.56;;;7.77;62.07
64189;BME280;50493;50.970;10.082;2023-03-13T00:14:03;98483.03;;;7.64;61.33
64189;BME280;50493;50.970;10.082;2023-03-13T00:16:30;98472.31;;;7.76;61.20
64189;BME280;50493;50.970;10.082;2023-03-13T00:18:56;98471.00;;;7.60;59.61
64189;BME280;50493;50.970;10.082;2023-03-13T00:21:23;98468.88;;;7.76;61.67
64189;BME280;50493;50.970;10.082;2023-03-13T00:23:50;98454.75;;;7.85;60.89
64189;BME280;50493;50.970;10.082;2023-03-13T00:26:17;98450.56;;;7.79;60.98
64189;BME280;50493;50.970;10.082;2023-03-13T00:28:44;98449.78;;;7.75;61.50
64189;BME280;50493;50.970;10.082;2023-03-13T00:31:11;98449.56;;;7.85;61.76
64189;BME280;50493;50.970;10.082;2023-03-13T00:33:38;98449.47;;;7.88;60.84
64189;BME280;50493;50.970;10.082;2023-03-13T00:36:06;98444.22;;;7.91;60.78
64189;BME280;50493;50.970;10.082;2023-03-13T00:38:33;98437.09;;;7.98;60.61
64189;BME280;50493;50.970;10.082;2023-03-13T00:41:02;98441.53;;;7.94;60.57
64189;BME280;50493;50.970;10.082;2023-03-13T00:43:28;98441.00;;;7.79;59.00
64189;BME280;50493;50.970;10.082;2023-03-13T00:45:53;98440.63;;;7.60;59.24
64189;BME280;50493;50.970;10.082;2023-03-13T00:48:19;98445.25;;;7.84;61.62
64189;BME280;50493;50.970;10.082;2023-03-13T00:50:44;98445.38;;;7.79;61.24
64189;BME280;50493;50.970;10.082;2023-03-13T00:53:09;98432.81;;;7.95;61.02
64189;BME280;50493;50.970;10.082;2023-03-13T00:55:35;98433.47;;;8.03;60.75
64189;BME280;50493;50.970;10.082;2023-03-13T00:58:01;98431.75;;;8.02;60.50
64189;BME280;50493;50.970;10.082;2023-03-13T01:00:26;98432.78;;;7.97;60.47
64189;BME280;50493;50.970;10.082;2023-03-13T01:02:52;98435.25;;;8.01;61.01
64189;BME280;50493;50.970;10.082;2023-03-13T01:05:17;98438.25;;;8.19;60.08
64189;BME280;50493;50.970;10.082;2023-03-13T01:07:42;98438.44;;;8.12;60.05
64189;BME280;50493;50.970;10.082;2023-03-13T01:10:09;98428.91;;;8.11;60.25
64189;BME280;50493;50.970;10.082;2023-03-13T01:12:34;98434.31;;;8.04;60.96
64189;BME280;50493;50.970;10.082;2023-03-13T01:15:01;98422.47;;;8.25;59.99
64189;BME280;50493;50.970;10.082;2023-03-13T01:17:26;98410.06;;;8.35;59.96
64189;BME280;50493;50.970;10.082;2023-03-13T01:19:54;98411.72;;;8.37;59.67
64189;BME280;50493;50.970;10.082;2023-03-13T01:22:19;98409.56;;;8.22;60.06
64189;BME280;50493;50.970;10.082;2023-03-13T01:24:45;98401.13;;;8.43;60.37
64189;BME280;50493;50.970;10.082;2023-03-13T01:27:10;98405.31;;;8.49;59.51
64189;BME280;50493;50.970;10.082;2023-03-13T01:29:35;98394.31;;;8.39;59.82
64189;BME280;50493;50.970;10.082;2023-03-13T01:32:02;98379.47;;;8.41;60.19
64189;BME280;50493;50.970;10.082;2023-03-13T01:34:28;98375.00;;;8.46;59.88
64189;BME280;50493;50.970;10.082;2023-03-13T01:36:53;98355.59;;;8.57;59.88
64189;BME280;50493;50.970;10.082;2023-03-13T01:39:18;98356.41;;;8.59;59.75
64189;BME280;50493;50.970;10.082;2023-03-13T01:41:44;98360.97;;;8.51;59.76
64189;BME280;50493;50.970;10.082;2023-03-13T01:44:20;98361.09;;;8.16;57.89
64189;BME280;50493;50.970;10.082;2023-03-13T01:46:45;98356.63;;;8.21;61.33
64189;BME280;50493;50.970;10.082;2023-03-13T01:49:16;98351.03;;;8.35;60.44
64189;BME280;50493;50.970;10.082;2023-03-13T01:51:44;98339.78;;;8.33;60.75
64189;BME280;50493;50.970;10.082;2023-03-13T01:54:14;98336.56;;;8.55;60.05
64189;BME280;50493;50.970;10.082;2023-03-13T01:56:44;98325.47;;;8.48;60.33
64189;BME280;50493;50.970;10.082;2023-03-13T01:59:14;98321.28;;;8.42;60.28
64189;BME280;50493;50.970;10.082;2023-03-13T02:01:43;98309.44;;;8.32;60.85
64189;BME280;50493;50.970;10.082;2023-03-13T02:04:11;98299.28;;;8.23;61.06
64189;BME280;50493;50.970;10.082;2023-03-13T02:06:39;98294.84;;;8.26;61.63
64189;BME280;50493;50.970;10.082;2023-03-13T02:09:09;98290.16;;;8.39;60.99
64189;BME280;50493;50.970;10.082;2023-03-13T02:11:38;98290.03;;;8.42;59.88
64189;BME280;50493;50.970;10.082;2023-03-13T02:14:08;98291.38;;;8.27;61.69
64189;BME280;50493;50.970;10.082;2023-03-13T02:16:34;98288.03;;;8.22;62.19
64189;BME280;50493;50.970;10.082;2023-03-13T02:19:01;98282.22;;;8.14;62.52
64189;BME280;50493;50.970;10.082;2023-03-13T02:21:38;98280.44;;;8.15;62.60
64189;BME280;50493;50.970;10.082;2023-03-13T02:24:13;98283.28;;;8.07;62.82
64189;BME280;50493;50.970;10.082;2023-03-13T02:26:45;98264.66;;;8.21;62.24
64189;BME280;50493;50.970;10.082;2023-03-13T02:29:10;98270.13;;;8.11;63.42
64189;BME280;50493;50.970;10.082;2023-03-13T02:31:45;98265.72;;;7.84;62.77
64189;BME280;50493;50.970;10.082;2023-03-13T02:34:12;98260.84;;;8.31;62.36
64189;BME280;50493;50.970;10.082;2023-03-13T02:36:39;98262.41;;;8.38;62.49
64189;BME280;50493;50.970;10.082;2023-03-13T02:39:05;98262.84;;;8.23;63.02
64189;BME280;50493;50.970;10.082;2023-03-13T02:41:33;98262.44;;;8.08;63.33
64189;BME280;50493;50.970;10.082;2023-03-13T02:44:00;98251.25;;;8.33;62.50
64189;BME280;50493;50.970;10.082;2023-03-13T02:46:25;98252.25;;;8.57;61.10
64189;BME280;50493;50.970;10.082;2023-03-13T02:48:53;98245.88;;;8.66;60.18
64189;BME280;50493;50.970;10.082;2023-03-13T02:51:23;98225.63;;;8.76;59.44
64189;BME280;50493;50.970;10.082;2023-03-13T02:53:51;98218.16;;;8.65;61.47
64189;BME280;50493;50.970;10.082;2023-03-13T02:56:19;98219.22;;;8.85;60.41
64189;BME280;50493;50.970;10.082;2023-03-13T02:58:45;98209.34;;;8.69;61.21
64189;BME280;50493;50.970;10.082;2023-03-13T03:01:12;98202.69;;;8.86;60.55
64189;BME280;50493;50.970;10.082;2023-03-13T03:03:37;98205.72;;;8.73;57.09
64189;BME280;50493;50.970;10.082;2023-03-13T03:06:05;98203.91;;;8.75;61.40
64189;BME280;50493;50.970;10.082;2023-03-13T03:08:30;98193.47;;;8.75;61.27
64189;BME280;50493;50.970;10.082;2023-03-13T03:10:56;98201.59;;;8.93;60.57
64189;BME280;50493;50.970;10.082;2023-03-13T03:13:21;98195.66;;;9.15;60.25
64189;BME280;50493;50.970;10.082;2023-03-13T03:15:47;98184.66;;;9.06;59.85
64189;BME280;50493;50.970;10.082;2023-03-13T03:18:13;98179.66;;;9.00;60.36
64189;BME280;50493;50.970;10.082;2023-03-13T03:20:39;98178.66;;;8.51;62.25
64189;BME280;50493;50.970;10.082;2023-03-13T03:23:04;98171.94;;;8.97;60.91
64189;BME280;50493;50.970;10.082;2023-03-13T03:25:29;98165.31;;;8.87;60.82
64189;BME280;50493;50.970;10.082;2023-03-13T03:27:55;98151.72;;;9.04;60.47
64189;BME280;50493;50.970;10.082;2023-03-13T03:30:20;98146.81;;;8.94;60.63
64189;BME280;50493;50.970;10.082;2023-03-13T03:32:46;98146.28;;;8.85;60.09
64189;BME280;50493;50.970;10.082;2023-03-13T03:35:12;98147.16;;;9.10;60.24
64189;BME280;50493;50.970;10.082;2023-03-13T03:37:38;98128.59;;;8.42;55.42
64189;BME280;50493;50.970;10.082;2023-03-13T03:40:04;98136.69;;;8.85;58.49
64189;BME280;50493;50.970;10.082;2023-03-13T03:42:30;98133.28;;;8.58;61.89
64189;BME280;50493;50.970;10.082;2023-03-13T03:44:56;98121.06;;;8.60;62.14
64189;BME280;50493;50.970;10.082;2023-03-13T03:47:21;98113.56;;;9.01;60.96
64189;BME280;50493;50.970;10.082;2023-03-13T03:49:46;98109.69;;;9.13;60.67
64189;BME280;50493;50.970;10.082;2023-03-13T03:52:13;98093.41;;;9.06;60.92
64189;BME280;50493;50.970;10.082;2023-03-13T03:54:38;98090.94;;;9.03;60.09
64189;BME280;50493;50.970;10.082;2023-03-13T03:57:04;98086.81;;;8.96;60.51
64189;BME280;50493;50.970;10.082;2023-03-13T03:59:29;98090.84;;;8.79;56.36
64189;BME280;50493;50.970;10.082;2023-03-13T04:01:54;98093.00;;;8.92;61.89
64189;BME280;50493;50.970;10.082;2023-03-13T04:04:20;98094.03;;;9.13;61.38
64189;BME280;50493;50.970;10.082;2023-03-13T04:06:45;98088.53;;;8.97;57.24
64189;BME280;50493;50.970;10.082;2023-03-13T04:09:12;98083.88;;;8.03;63.79
64189;BME280;50493;50.970;10.082;2023-03-13T04:11:37;98070.78;;;8.31;64.97
64189;BME280;50493;50.970;10.082;2023-03-13T04:14:02;98076.38;;;8.45;64.13
64189;BME280;50493;50.970;10.082;2023-03-13T04:16:28;98074.31;;;8.30;65.58
64189;BME280;50493;50.970;10.082;2023-03-13T04:18:53;98060.72;;;8.22;66.38
64189;BME280;50493;50.970;10.082;2023-03-13T04:21:19;98059.78;;;8.23;61.58
64189;BME280;50493;50.970;10.082;2023-03-13T04:23:44;98062.69;;;8.91;64.17
64189;BME280;50493;50.970;10.082;2023-03-13T04:26:11;98060.75;;;8.45;66.71
64189;BME280;50493;50.970;10.082;2023-03-13T04:28:36;98060.72;;;8.22;66.33
64189;BME280;50493;50.970;10.082;2023-03-13T04:31:01;98054.19;;;8.08;69.39
64189;BME280;50493;50.970;10.082;2023-03-13T04:33:28;98048.19;;;8.06;69.38
64189;BME280;50493;50.970;10.082;2023-03-13T04:35:53;98046.94;;;8.18;70.32
64189;BME280;50493;50.970;10.082;2023-03-13T04:38:18;98043.56;;;7.88;70.57
64189;BME280;50493;50.970;10.082;2023-03-13T04:40:44;98039.88;;;7.95;73.08
64189;BME280;50493;50.970;10.082;2023-03-13T04:43:11;98035.31;;;7.75;75.93
64189;BME280;50493;50.970;10.082;2023-03-13T04:45:36;98038.47;;;7.85;74.66
64189;BME280;50493;50.970;10.082;2023-03-13T04:48:01;98027.91;;;7.63;76.03
64189;BME280;50493;50.970;10.082;2023-03-13T04:50:27;98014.03;;;7.35;72.47
64189;BME280;50493;50.970;10.082;2023-03-13T04:52:52;98014.03;;;7.62;78.13
64189;BME280;50493;50.970;10.082;2023-03-13T04:55:18;98002.75;;;7.90;76.90
64189;BME280;50493;50.970;10.082;2023-03-13T04:57:43;97997.59;;;7.88;73.26
64189;BME280;50493;50.970;10.082;2023-03-13T05:00:11;97995.81;;;8.16;75.26
64189;BME280;50493;50.970;10.082;2023-03-13T05:02:36;97999.75;;;8.02;73.15
64189;BME280;50493;50.970;10.082;2023-03-13T05:05:02;98007.22;;;8.38;74.27
64189;BME280;50493;50.970;10.082;2023-03-13T05:07:28;98008.06;;;8.14;75.95
64189;BME280;50493;50.970;10.082;2023-03-13T05:09:53;98001.63;;;8.24;71.05
64189;BME280;50493;50.970;10.082;2023-03-13T05:12:18;98001.19;;;8.11;73.58
64189;BME280;50493;50.970;10.082;2023-03-13T05:14:44;97990.63;;;8.65;73.67
64189;BME280;50493;50.970;10.082;2023-03-13T05:17:10;97975.53;;;8.51;69.15
64189;BME280;50493;50.970;10.082;2023-03-13T05:19:36;97989.63;;;7.93;72.82
64189;BME280;50493;50.970;10.082;2023-03-13T05:22:02;97992.47;;;8.12;75.19
64189;BME280;50493;50.970;10.082;2023-03-13T05:24:27;97996.47;;;8.48;74.95
64189;BME280;50493;50.970;10.082;2023-03-13T05:26:52;97988.78;;;8.19;74.93
64189;BME280;50493;50.970;10.082;2023-03-13T05:29:18;97983.28;;;8.27;73.59
64189;BME280;50493;50.970;10.082;2023-03-13T05:31:43;97984.34;;;8.21;75.53
64189;BME280;50493;50.970;10.082;2023-03-13T05:34:10;97963.19;;;8.05;69.58
64189;BME280;50493;50.970;10.082;2023-03-13T05:36:36;97972.03;;;8.26;75.96
64189;BME280;50493;50.970;10.082;2023-03-13T05:39:01;97945.88;;;8.29;75.38
64189;BME280;50493;50.970;10.082;2023-03-13T05:41:27;97949.41;;;8.03;76.04
64189;BME280;50493;50.970;10.082;2023-03-13T05:43:52;97942.94;;;8.15;75.45
64189;BME280;50493;50.970;10.082;2023-03-13T05:46:17;97962.31;;;7.79;65.96
64189;BME280;50493;50.970;10.082;2023-03-13T05:48:43;97965.00;;;8.03;76.36
64189;BME280;50493;50.970;10.082;2023-03-13T05:51:11;97962.16;;;8.11;76.00
64189;BME280;50493;50.970;10.082;2023-03-13T05:53:36;97947.06;;;8.21;76.33
64189;BME280;50493;50.970;10.082;2023-03-13T05:56:02;97956.34;;;7.77;77.83
64189;BME280;50493;50.970;10.082;2023-03-13T05:58:27;97961.47;;;7.79;77.53
64189;BME280;50493;50.970;10.082;2023-03-13T06:00:52;97961.28;;;8.10;75.54
64189;BME280;50493;50.970;10.082;2023-03-13T06:03:18;97944.09;;;8.06;76.72
64189;BME280;50493;50.970;10.082;2023-03-13T06:05:43;97948.00;;;7.93;76.56
64189;BME280;50493;50.970;10.082;2023-03-13T06:08:10;97957.72;;;8.38;76.10
64189;BME280;50493;50.970;10.082;2023-03-13T06:10:35;97940.91;;;7.98;77.14
64189;BME280;50493;50.970;10.082;2023-03-13T06:13:00;97945.56;;;7.88;76.07
64189;BME280;50493;50.970;10.082;2023-03-13T06:15:26;97954.22;;;7.62;76.15
64189;BME280;50493;50.970;10.082;2023-03-13T06:17:51;97935.41;;;7.55;77.00
64189;BME280;50493;50.970;10.082;2023-03-13T06:20:17;97946.72;;;7.79;78.86
64189;BME280;50493;50.970;10.082;2023-03-13T06:22:42;97950.25;;;7.77;78.49
64189;BME280;50493;50.970;10.082;2023-03-13T06:25:09;97946.91;;;8.00;78.83
64189;BME280;50493;50.970;10.082;2023-03-13T06:27:34;97946.03;;;7.74;79.94
64189;BME280;50493;50.970;10.082;2023-03-13T06:30:00;97949.66;;;8.21;74.84
64189;BME280;50493;50.970;10.082;2023-03-13T06:32:26;97939.19;;;7.97;79.18
64189;BME280;50493;50.970;10.082;2023-03-13T06:34:51;97926.56;;;8.11;78.64
64189;BME280;50493;50.970;10.082;2023-03-13T06:37:17;97927.00;;;8.24;79.09
64189;BME280;50493;50.970;10.082;2023-03-13T06:39:42;97942.91;;;7.90;80.90
64189;BME280;50493;50.970;10.082;2023-03-13T06:42:09;97944.31;;;8.00;77.54
64189;BME280;50493;50.970;10.082;2023-03-13T06:44:34;97938.88;;;8.32;78.54
64189;BME280;50493;50.970;10.082;2023-03-13T06:46:59;97940.44;;;8.61;77.60
64189;BME280;50493;50.970;10.082;2023-03-13T06:49:25;97927.72;;;8.75;76.63
64189;BME280;50493;50.970;10.082;2023-03-13T06:51:50;97927.31;;;8.39;77.80
64189;BME280;50493;50.970;10.082;2023-03-13T06:54:15;97926.28;;;8.90;76.60
64189;BME280;50493;50.970;10.082;2023-03-13T06:56:41;97932.72;;;8.82;75.75
64189;BME280;50493;50.970;10.082;2023-03-13T06:59:07;97932.06;;;9.00;75.54
64189;BME280;50493;50.970;10.082;2023-03-13T07:01:33;97936.91;;;8.86;75.08
64189;BME280;50493;50.970;10.082;2023-03-13T07:03:58;97933.44;;;9.09;74.63
64189;BME280;50493;50.970;10.082;2023-03-13T07:06:23;97937.94;;;8.82;74.97
64189;BME280;50493;50.970;10.082;2023-03-13T07:08:49;97943.59;;;8.69;77.06
64189;BME280;50493;50.970;10.082;2023-03-13T07:11:14;97935.22;;;9.08;75.48
64189;BME280;50493;50.970;10.082;2023-03-13T07:13:40;97948.53;;;9.23;74.68
64189;BME280;50493;50.970;10.082;2023-03-13T07:16:08;97937.50;;;9.38;74.75
64189;BME280;50493;50.970;10.082;2023-03-13T07:18:35;97935.41;;;9.26;70.03
64189;BME280;50493;50.970;10.082;2023-03-13T07:21:02;97927.84;;;9.40;74.29
64189;BME280;50493;50.970;10.082;2023-03-13T07:23:31;97931.09;;;9.25;69.84
64189;BME280;50493;50.970;10.082;2023-03-13T07:25:58;97923.94;;;9.30;72.58
64189;BME280;50493;50.970;10.082;2023-03-13T07:28:25;97930.53;;;9.39;74.90
64189;BME280;50493;50.970;10.082;2023-03-13T07:30:51;97917.69;;;9.34;74.81
64189;BME280;50493;50.970;10.082;2023-03-13T07:33:18;97929.03;;;9.33;74.47
64189;BME280;50493;50.970;10.082;2023-03-13T07:35:47;97926.22;;;9.60;73.43
64189;BME280;50493;50.970;10.082;2023-03-13T07:38:12;97941.63;;;9.44;71.65
64189;BME280;50493;50.970;10.082;2023-03-13T07:40:37;97930.81;;;9.31;73.21
64189;BME280;50493;50.970;10.082;2023-03-13T07:43:03;97932.09;;;9.65;74.00
64189;BME280;50493;50.970;10.082;2023-03-13T07:45:28;97927.13;;;9.79;73.33
64189;BME280;50493;50.970;10.082;2023-03-13T07:47:54;97927.50;;;9.70;72.95
64189;BME280;50493;50.970;10.082;2023-03-13T07:50:20;97927.94;;;9.82;71.28
64189;BME280;50493;50.970;10.082;2023-03-13T07:52:46;97928.59;;;9.87;73.36
64189;BME280;50493;50.970;10.082;2023-03-13T07:55:11;97923.94;;;9.93;72.79
64189;BME280;50493;50.970;10.082;2023-03-13T07:57:36;97918.16;;;9.87;73.08
64189;BME280;50493;50.970;10.082;2023-03-13T08:00:02;97921.41;;;9.92;73.35
64189;BME280;50493;50.970;10.082;2023-03-13T08:02:29;97931.97;;;9.89;73.38
64189;BME280;50493;50.970;10.082;2023-03-13T08:04:54;97928.16;;;9.55;74.97
64189;BME280;50493;50.970;10.082;2023-03-13T08:07:21;97924.72;;;9.54;74.89
64189;BME280;50493;50.970;10.082;2023-03-13T08:09:47;97920.47;;;9.72;74.79
64189;BME280;50493;50.970;10.082;2023-03-13T08:12:12;97896.53;;;9.83;75.06
64189;BME280;50493;50.970;10.082;2023-03-13T08:14:37;97888.44;;;10.10;73.96
64189;BME280;50493;50.970;10.082;2023-03-13T08:17:03;97893.47;;;9.94;73.49
64189;BME280;50493;50.970;10.082;2023-03-13T08:19:29;97891.97;;;10.09;74.66
64189;BME280;50493;50.970;10.082;2023-03-13T08:21:54;97883.75;;;9.97;75.17
64189;BME280;50493;50.970;10.082;2023-03-13T08:24:21;97891.50;;;10.20;73.93
64189;BME280;50493;50.970;10.082;2023-03-13T08:26:46;97892.31;;;9.80;75.13
64189;BME280;50493;50.970;10.082;2023-03-13T08:29:13;97887.72;;;10.06;74.81
64189;BME280;50493;50.970;10.082;2023-03-13T08:31:43;97886.16;;;10.02;74.66
64189;BME280;50493;50.970;10.082;2023-03-13T08:34:10;97880.66;;;10.29;71.97
64189;BME280;50493;50.970;10.082;2023-03-13T08:36:36;97877.22;;;10.08;74.21
64189;BME280;50493;50.970;10.082;2023-03-13T08:39:04;97886.31;;;9.99;73.70
64189;BME280;50493;50.970;10.082;2023-03-13T08:41:34;97882.19;;;10.33;73.50
64189;BME280;50493;50.970;10.082;2023-03-13T08:44:01;97889.53;;;10.25;71.67
64189;BME280;50493;50.970;10.082;2023-03-13T08:46:28;97881.97;;;10.19;69.70
64189;BME280;50493;50.970;10.082;2023-03-13T08:48:53;97899.75;;;10.50;73.05
64189;BME280;50493;50.970;10.082;2023-03-13T08:51:20;97888.81;;;10.80;71.44
64189;BME280;50493;50.970;10.082;2023-03-13T08:53:46;97901.53;;;10.50;72.77
64189;BME280;50493;50.970;10.082;2023-03-13T08:56:13;97894.09;;;10.59;64.25
64189;BME280;50493;50.970;10.082;2023-03-13T08:58:40;97900.94;;;10.43;71.81
64189;BME280;50493;50.970;10.082;2023-03-13T09:01:08;97902.69;;;10.22;69.07
64189;BME280;50493;50.970;10.082;2023-03-13T09:03:33;97889.78;;;10.19;72.20
64189;BME280;50493;50.970;10.082;2023-03-13T09:05:59;97890.50;;;10.43;72.79
64189;BME280;50493;50.970;10.082;2023-03-13T09:08:25;97886.13;;;10.81;71.67
64189;BME280;50493;50.970;10.082;2023-03-13T09:10:54;97880.22;;;10.59;72.19
64189;BME280;50493;50.970;10.082;2023-03-13T09:13:19;97872.28;;;10.60;69.02
64189;BME280;50493;50.970;10.082;2023-03-13T09:15:52;97882.31;;;10.51;72.55
64189;BME280;50493;50.970;10.082;2023-03-13T09:18:18;97883.19;;;10.30;71.05
64189;BME280;50493;50.970;10.082;2023-03-13T09:20:43;97886.56;;;10.53;73.32
64189;BME280;50493;50.970;10.082;2023-03-13T09:23:09;97872.72;;;10.70;71.44
64189;BME280;50493;50.970;10.082;2023-03-13T09:25:36;97870.66;;;10.58;68.55
64189;BME280;50493;50.970;10.082;2023-03-13T09:28:02;97872.28;;;10.41;70.64
64189;BME280;50493;50.970;10.082;2023-03-13T09:30:27;97866.78;;;10.27;72.99
64189;BME280;50493;50.970;10.082;2023-03-13T09:32:54;97873.34;;;10.37;71.16
64189;BME280;50493;50.970;10.082;2023-03-13T09:35:19;97861.91;;;10.59;73.53
64189;BME280;50493;50.970;10.082;2023-03-13T09:37:44;97860.75;;;10.84;72.69
64189;BME280;50493;50.970;10.082;2023-03-13T09:40:13;97854.31;;;11.10;68.70
64189;BME280;50493;50.970;10.082;2023-03-13T09:42:44;97845.41;;;10.95;72.18
64189;BME280;50493;50.970;10.082;2023-03-13T09:45:15;97848.69;;;10.62;72.21
64189;BME280;50493;50.970;10.082;2023-03-13T09:47:44;97859.25;;;10.97;72.66
64189;BME280;50493;50.970;10.082;2023-03-13T09:50:14;97854.63;;;10.85;68.23
64189;BME280;50493;50.970;10.082;2023-03-13T09:52:43;97845.34;;;11.33;66.41
64189;BME280;50493;50.970;10.082;2023-03-13T09:55:12;97848.75;;;12.21;63.78
64189;BME280;50493;50.970;10.082;2023-03-13T09:57:44;97839.22;;;12.68;64.38
64189;BME280;50493;50.970;10.082;2023-03-13T10:00:16;97847.63;;;12.91;62.91
64189;BME280;50493;50.970;10.082;2023-03-13T10:02:46;97835.38;;;13.38;64.21
64189;BME280;50493;50.970;10.082;2023-03-13T10:05:16;97827.56;;;12.90;60.80
64189;BME280;50493;50.970;10.082;2023-03-13T10:07:44;97819.38;;;13.57;62.79
64189;BME280;50493;50.970;10.082;2023-03-13T10:10:13;97814.56;;;13.79;61.70
64189;BME280;50493;50.970;10.082;2023-03-13T10:12:43;97825.13;;;13.63;62.94
64189;BME280;50493;50.970;10.082;2023-03-13T10:15:23;97805.00;;;13.48;58.43
64189;BME280;50493;50.970;10.082;2023-03-13T10:17:52;97818.66;;;13.08;62.94
64189;BME280;50493;50.970;10.082;2023-03-13T10:20:23;97817.78;;;12.61;63.10
64189;BME280;50493;50.970;10.082;2023-03-13T10:22:53;97807.69;;;12.54;65.76
64189;BME280;50493;50.970;10.082;2023-03-13T10:25:27;97795.25;;;12.73;64.46
64189;BME280;50493;50.970;10.082;2023-03-13T10:27:54;97805.66;;;12.75;63.89
64189;BME280;50493;50.970;10.082;2023-03-13T10:30:22;97797.13;;;12.71;64.72
64189;BME280;50493;50.970;10.082;2023-03-13T10:32:49;97788.22;;;13.06;64.22
64189;BME280;50493;50.970;10.082;2023-03-13T10:35:21;97788.81;;;13.41;58.75
64189;BME280;50493;50.970;10.082;2023-03-13T10:37:47;97793.91;;;13.28;61.86
64189;BME280;50493;50.970;10.082;2023-03-13T10:40:19;97804.63;;;13.09;62.13
64189;BME280;50493;50.970;10.082;2023-03-13T10:42:47;97803.31;;;13.02;63.57
64189;BME280;50493;50.970;10.082;2023-03-13T10:45:14;97800.09;;;12.97;63.03
64189;BME280;50493;50.970;10.082;2023-03-13T10:47:40;97802.34;;;13.03;63.25
64189;BME280;50493;50.970;10.082;2023-03-13T10:50:06;97807.88;;;12.82;64.27
64189;BME280;50493;50.970;10.082;2023-03-13T10:52:35;97808.97;;;12.62;61.57
64189;BME280;50493;50.970;10.082;2023-03-13T10:55:10;97804.13;;;12.23;65.20
64189;BME280;50493;50.970;10.082;2023-03-13T10:57:36;97814.63;;;12.55;64.70
64189;BME280;50493;50.970;10.082;2023-03-13T11:00:06;97812.84;;;12.55;64.76
64189;BME280;50493;50.970;10.082;2023-03-13T11:02:47;97820.44;;;12.28;65.57
64189;BME280;50493;50.970;10.082;2023-03-13T11:05:29;97814.06;;;11.82;66.27
64189;BME280;50493;50.970;10.082;2023-03-13T11:07:56;97800.72;;;12.21;65.21
64189;BME280;50493;50.970;10.082;2023-03-13T11:10:23;97815.91;;;12.14;65.97
64189;BME280;50493;50.970;10.082;2023-03-13T11:12:50;97814.78;;;12.20;65.38
64189;BME280;50493;50.970;10.082;2023-03-13T11:15:18;97817.16;;;11.73;67.16
64189;BME280;50493;50.970;10.082;2023-03-13T11:17:46;97815.88;;;12.15;66.33
64189;BME280;50493;50.970;10.082;2023-03-13T11:20:22;97808.94;;;12.46;64.97
64189;BME280;50493;50.970;10.082;2023-03-13T11:22:54;97799.06;;;12.52;63.84
64189;BME280;50493;50.970;10.082;2023-03-13T11:25:30;97784.28;;;12.51;64.89
64189;BME280;50493;50.970;10.082;2023-03-13T11:28:15;97767.75;;;12.96;63.66
64189;BME280;50493;50.970;10.082;2023-03-13T11:30:51;97771.44;;;13.08;61.40
64189;BME280;50493;50.970;10.082;2023-03-13T11:33:28;97768.44;;;13.00;62.21
64189;BME280;50493;50.970;10.082;2023-03-13T11:36:00;97770.72;;;13.51;60.84
64189;BME280;50493;50.970;10.082;2023-03-13T11:38:31;97774.94;;;13.54;62.92
64189;BME280;50493;50.970;10.082;2023-03-13T11:41:06;97767.06;;;13.68;62.27
64189;BME280;50493;50.970;10.082;2023-03-13T11:43:47;97761.84;;;13.82;61.34
64189;BME280;50493;50.970;10.082;2023-03-13T11:46:21;97765.59;;;13.78;61.19
64189;BME280;50493;50.970;10.082;2023-03-13T11:49:12;97761.91;;;13.66;62.47
64189;BME280;50493;50.970;10.082;2023-03-13T11:51:56;97766.69;;;13.60;61.94
64189;BME280;50493;50.970;10.082;2023-03-13T11:54:36;97775.41;;;12.85;63.98
64189;BME280;50493;50.970;10.082;2023-03-13T11:57:11;97764.47;;;12.77;64.77
64189;BME280;50493;50.970;10.082;2023-03-13T11:59:44;97750.84;;;13.02;64.26
64189;BME280;50493;50.970;10.082;2023-03-13T12:02:19;97764.88;;;13.01;64.74
64189;BME280;50493;50.970;10.082;2023-03-13T12:04:50;97748.63;;;13.25;63.47
64189;BME280;50493;50.970;10.082;2023-03-13T12:07:22;97741.19;;;13.03;64.43
64189;BME280;50493;50.970;10.082;2023-03-13T12:09:53;97724.84;;;13.28;63.16
64189;BME280;50493;50.970;10.082;2023-03-13T12:12:30;97722.63;;;13.36;62.99
64189;BME280;50493;50.970;10.082;2023-03-13T12:15:01;97736.50;;;13.53;62.54
64189;BME280;50493;50.970;10.082;2023-03-13T12:17:32;97726.38;;;13.61;62.52
64189;BME280;50493;50.970;10.082;2023-03-13T12:20:02;97727.31;;;13.45;63.22
64189;BME280;50493;50.970;10.082;2023-03-13T12:22:35;97727.00;;;13.36;63.30
64189;BME280;50493;50.970;10.082;2023-03-13T12:25:05;97717.56;;;13.47;63.34
64189;BME280;50493;50.970;10.082;2023-03-13T12:27:40;97726.84;;;13.39;63.10
64189;BME280;50493;50.970;10.082;2023-03-13T12:30:18;97721.13;;;13.61;62.40
64189;BME280;50493;50.970;10.082;2023-03-13T12:32:52;97714.91;;;13.19;63.78
64189;BME280;50493;50.970;10.082;2023-03-13T12:35:23;97705.09;;;13.51;62.46
64189;BME280;50493;50.970;10.082;2023-03-13T12:37:53;97699.78;;;13.96;61.81
64189;BME280;50493;50.970;10.082;2023-03-13T12:40:25;97692.16;;;14.06;61.02
64189;BME280;50493;50.970;10.082;2023-03-13T12:42:58;97680.25;;;13.71;61.69
64189;BME280;50493;50.970;10.082;2023-03-13T12:45:26;97674.78;;;14.03;61.31
64189;BME280;50493;50.970;10.082;2023-03-13T12:48:16;97672.97;;;14.18;60.65
64189;BME280;50493;50.970;10.082;2023-03-13T12:50:57;97669.19;;;13.66;62.53
64189;BME280;50493;50.970;10.082;2023-03-13T12:53:38;97660.38;;;13.96;61.51
64189;BME280;50493;50.970;10.082;2023-03-13T12:56:17;97648.72;;;14.00;61.18
64189;BME280;50493;50.970;10.082;2023-03-13T12:58:52;97653.03;;;14.01;60.93
64189;BME280;50493;50.970;10.082;2023-03-13T13:01:28;97649.31;;;13.62;62.27